Time;durP1;ratioP1;P1;durP2;ratioP2;P2;SDS_P1;SDS_P2;PMS_P1;PMS_P2;Temp;Humidity;BMP_temperature;BMP_pressure;BME280_temperature;BME280_humidity;BME280_pressure;Samples;Min_cycle;Max_cycle;Signal;HPM_P1;HPM_P2
2022/11/15 00:00:52;;;;;;;103.70;60.85;;;6.80;99.90;;;;;;2037287;29;20039;-72
2022/11/15 00:02:11;;;;;;;99.50;57.47;;;6.80;99.90;;;;;;2037834;29;20035;-72
2022/11/15 00:03:30;;;;;;;110.88;61.05;;;6.80;99.90;;;;;;2037767;29;20111;-71
2022/11/15 00:04:49;;;;;;;99.90;57.35;;;6.80;99.90;;;;;;2037614;29;20040;-72
2022/11/15 00:06:09;;;;;;;100.65;56.83;;;6.80;99.90;;;;;;2040153;29;20047;-72
2022/11/15 00:07:28;;;;;;;102.53;58.83;;;6.80;99.90;;;;;;2040122;29;20035;-72
2022/11/15 00:08:47;;;;;;;103.10;60.45;;;6.80;99.90;;;;;;2039414;29;20039;-72
2022/11/15 00:10:07;;;;;;;107.18;61.63;;;6.80;99.90;;;;;;2039743;29;20039;-71
2022/11/15 00:11:26;;;;;;;104.63;59.97;;;6.80;99.90;;;;;;2039505;29;20123;-72
2022/11/15 00:12:45;;;;;;;110.15;60.95;;;6.90;99.90;;;;;;2040155;29;20035;-71
2022/11/15 00:14:05;;;;;;;111.18;62.00;;;6.90;99.90;;;;;;2039362;29;20106;-72
2022/11/15 00:15:24;;;;;;;110.85;62.25;;;6.90;99.90;;;;;;2039688;29;20043;-72
2022/11/15 00:16:43;;;;;;;110.35;63.83;;;6.90;99.90;;;;;;2039290;29;20031;-72
2022/11/15 00:18:04;;;;;;;105.93;59.55;;;6.90;99.90;;;;;;2039221;29;20430;-70
2022/11/15 00:19:23;;;;;;;106.50;60.08;;;6.90;99.90;;;;;;2040249;29;20438;-71
2022/11/15 00:20:42;;;;;;;103.95;60.30;;;6.90;99.90;;;;;;2041686;29;20035;-72
2022/11/15 00:22:02;;;;;;;102.25;59.30;;;6.90;99.90;;;;;;2038940;29;20042;-71
2022/11/15 00:23:21;;;;;;;100.28;59.03;;;6.90;99.90;;;;;;2038971;29;20052;-71
2022/11/15 00:24:40;;;;;;;105.25;59.83;;;6.90;99.90;;;;;;2038947;29;20659;-70
2022/11/15 00:25:59;;;;;;;106.35;60.25;;;6.90;99.90;;;;;;2036190;29;20031;-71
2022/11/15 00:27:18;;;;;;;100.22;58.75;;;6.90;99.90;;;;;;2033717;29;20036;-70
2022/11/15 00:28:38;;;;;;;101.35;58.47;;;6.90;99.90;;;;;;2045941;29;20062;-71
2022/11/15 00:29:57;;;;;;;102.20;59.30;;;6.90;99.90;;;;;;2043318;29;20032;-72
2022/11/15 00:31:16;;;;;;;106.38;60.45;;;6.80;99.90;;;;;;2038602;29;20506;-72
2022/11/15 00:32:36;;;;;;;100.45;58.72;;;6.80;99.90;;;;;;2039044;29;20035;-72
2022/11/15 00:33:55;;;;;;;103.03;59.55;;;6.80;99.90;;;;;;2038065;29;20111;-71
2022/11/15 00:35:14;;;;;;;102.28;58.42;;;6.80;99.90;;;;;;2045326;29;20645;-72
2022/11/15 00:36:34;;;;;;;104.47;59.05;;;6.80;99.90;;;;;;2041903;29;20055;-72
2022/11/15 00:37:53;;;;;;;107.63;60.00;;;6.80;99.90;;;;;;2042486;29;20036;-72
2022/11/15 00:39:12;;;;;;;102.28;58.25;;;6.80;99.90;;;;;;2041356;29;20043;-72
2022/11/15 00:40:32;;;;;;;101.15;58.78;;;6.80;99.90;;;;;;2042067;29;20079;-72
2022/11/15 00:41:51;;;;;;;108.82;61.67;;;6.80;99.90;;;;;;2039515;29;20040;-72
2022/11/15 00:43:10;;;;;;;105.82;58.83;;;6.80;99.90;;;;;;2040662;29;20418;-70
2022/11/15 00:44:29;;;;;;;108.88;60.53;;;6.80;99.90;;;;;;2040277;29;20039;-70
2022/11/15 00:45:48;;;;;;;108.22;61.40;;;6.80;99.90;;;;;;2040338;29;20058;-70
2022/11/15 00:47:07;;;;;;;111.07;62.60;;;6.80;99.90;;;;;;2039759;29;20067;-70
2022/11/15 00:48:26;;;;;;;107.18;60.38;;;6.80;99.90;;;;;;2038621;29;20031;-70
2022/11/15 00:49:45;;;;;;;105.40;59.60;;;6.80;99.90;;;;;;2039908;29;20023;-71
2022/11/15 00:51:05;;;;;;;106.55;60.58;;;6.80;99.90;;;;;;2039111;29;20039;-71
2022/11/15 00:52:24;;;;;;;103.10;59.10;;;6.80;99.90;;;;;;2039298;29;20036;-71
2022/11/15 00:53:43;;;;;;;114.18;63.28;;;6.70;99.90;;;;;;2035225;29;20040;-71
2022/11/15 00:55:03;;;;;;;110.30;62.58;;;6.80;99.90;;;;;;2039609;29;20751;-71
2022/11/15 00:56:22;;;;;;;102.15;58.45;;;6.80;99.90;;;;;;2038734;29;20745;-71
2022/11/15 00:57:41;;;;;;;109.32;60.38;;;6.80;99.90;;;;;;2038681;29;20035;-71
2022/11/15 00:59:00;;;;;;;109.43;61.83;;;6.80;99.90;;;;;;2039809;29;20118;-71
2022/11/15 01:00:20;;;;;;;112.53;62.78;;;6.80;99.90;;;;;;2038909;29;20110;-71
2022/11/15 01:01:39;;;;;;;110.10;62.75;;;6.80;99.90;;;;;;2038574;29;20115;-71
2022/11/15 01:02:58;;;;;;;108.03;61.58;;;6.80;99.90;;;;;;2040349;29;20115;-71
2022/11/15 01:04:17;;;;;;;101.32;57.78;;;6.80;99.90;;;;;;2039485;29;20155;-71
2022/11/15 01:05:37;;;;;;;107.03;59.53;;;6.80;99.90;;;;;;2040454;29;20040;-71
2022/11/15 01:06:57;;;;;;;107.13;59.70;;;6.80;99.90;;;;;;2040739;29;20040;-72
2022/11/15 01:08:17;;;;;;;102.43;57.33;;;6.70;99.90;;;;;;2047735;28;20035;-71
2022/11/15 01:09:36;;;;;;;107.93;61.83;;;6.70;99.90;;;;;;2042827;29;20498;-71
2022/11/15 01:11:04;;;;;;;108.68;60.45;;;6.70;99.90;;;;;;2037797;29;20024;-70
2022/11/15 01:12:23;;;;;;;98.53;56.75;;;6.70;99.90;;;;;;2039385;29;20043;-71
2022/11/15 01:13:42;;;;;;;107.60;60.17;;;6.70;99.90;;;;;;2039268;29;20032;-72
2022/11/15 01:15:02;;;;;;;104.38;58.30;;;6.60;99.90;;;;;;2040846;29;20099;-71
2022/11/15 01:16:22;;;;;;;113.03;61.90;;;6.70;99.90;;;;;;2041826;29;20126;-72
2022/11/15 01:17:41;;;;;;;104.82;59.13;;;6.70;99.90;;;;;;2042514;29;20090;-72
2022/11/15 01:19:00;;;;;;;101.93;58.03;;;6.70;99.90;;;;;;2040656;29;20039;-72
2022/11/15 01:20:20;;;;;;;98.30;55.85;;;6.60;99.90;;;;;;2048171;29;20031;-73
2022/11/15 01:21:39;;;;;;;101.90;57.60;;;6.60;99.90;;;;;;2045282;29;20522;-72
2022/11/15 01:22:58;;;;;;;110.75;60.83;;;6.60;99.90;;;;;;2040616;29;20023;-72
2022/11/15 01:24:18;;;;;;;103.45;58.08;;;6.60;99.90;;;;;;2040180;29;20051;-71
2022/11/15 01:25:37;;;;;;;100.18;56.30;;;6.60;99.90;;;;;;2039751;29;20059;-71
2022/11/15 01:26:56;;;;;;;115.28;62.13;;;6.60;99.90;;;;;;2040433;29;20123;-70
2022/11/15 01:28:15;;;;;;;110.38;60.33;;;6.60;99.90;;;;;;2040266;29;20028;-72
2022/11/15 01:29:34;;;;;;;106.05;58.80;;;6.60;99.90;;;;;;2040298;29;20047;-72
2022/11/15 01:30:53;;;;;;;98.13;55.67;;;6.60;99.90;;;;;;2036522;29;20068;-72
2022/11/15 01:32:12;;;;;;;110.10;60.13;;;6.50;99.90;;;;;;2046902;29;20481;-72
2022/11/15 01:33:34;;;;;;;101.93;56.63;;;6.50;99.90;;;;;;2044059;29;20059;-72
2022/11/15 01:34:53;;;;;;;115.95;61.80;;;6.50;99.90;;;;;;2041836;29;20031;-72
2022/11/15 01:36:18;;;;;;;110.25;60.53;;;6.60;99.90;;;;;;2042197;29;20394;-72
2022/11/15 01:37:37;;;;;;;105.50;58.47;;;6.60;99.90;;;;;;2042603;29;20039;-72
2022/11/15 01:38:58;;;;;;;105.85;57.67;;;6.60;99.90;;;;;;2039164;29;20027;-71
2022/11/15 01:40:17;;;;;;;109.35;58.67;;;6.50;99.90;;;;;;2035200;29;20052;-73
2022/11/15 01:41:36;;;;;;;110.53;60.00;;;6.60;99.90;;;;;;2042237;29;20058;-71
2022/11/15 01:42:55;;;;;;;111.75;60.38;;;6.60;99.90;;;;;;2041535;29;20039;-71
2022/11/15 01:44:33;;;;;;;118.90;63.10;;;6.60;99.90;;;;;;2047495;29;20023;-71
2022/11/15 01:46:14;;;;;;;123.05;64.93;;;6.60;99.90;;;;;;2043063;29;20505;-73
2022/11/15 01:47:37;;;;;;;121.43;61.80;;;6.70;99.90;;;;;;2042020;29;20027;-71
2022/11/15 01:49:01;;;;;;;121.43;63.80;;;6.70;99.90;;;;;;2037709;29;20044;-71
2022/11/15 01:50:27;;;;;;;113.28;60.00;;;6.70;99.90;;;;;;2041696;29;20434;-72
2022/11/15 01:51:47;;;;;;;119.05;61.63;;;6.70;99.90;;;;;;2041929;29;20039;-71
2022/11/15 01:53:07;;;;;;;118.43;62.10;;;6.70;99.90;;;;;;2038690;29;20410;-71
2022/11/15 01:54:27;;;;;;;121.43;62.60;;;6.70;99.90;;;;;;2041610;29;20035;-73
2022/11/15 01:55:47;;;;;;;119.47;63.08;;;6.80;99.90;;;;;;2040667;29;20098;-73
2022/11/15 01:57:11;;;;;;;127.10;63.90;;;6.80;99.90;;;;;;2042053;29;20035;-71
2022/11/15 01:58:32;;;;;;;117.82;61.30;;;6.80;99.90;;;;;;2041464;29;20039;-71
2022/11/15 01:59:51;;;;;;;118.50;61.83;;;6.80;99.90;;;;;;2041167;29;20031;-71
2022/11/15 02:01:12;;;;;;;116.43;62.55;;;6.80;99.90;;;;;;2041057;29;20039;-72
2022/11/15 02:02:34;;;;;;;108.72;58.90;;;6.90;99.90;;;;;;2040524;29;20043;-71
2022/11/15 02:04:11;;;;;;;103.57;56.47;;;6.80;99.90;;;;;;2040523;29;20055;-72
2022/11/15 02:05:31;;;;;;;114.10;60.10;;;6.80;99.90;;;;;;2040530;29;20055;-71
2022/11/15 02:06:50;;;;;;;112.95;59.90;;;6.80;99.90;;;;;;2035798;29;20040;-72
2022/11/15 02:08:19;;;;;;;119.63;62.88;;;6.80;99.90;;;;;;2040691;29;20043;-72
2022/11/15 02:09:39;;;;;;;116.10;61.28;;;6.80;99.90;;;;;;2040666;29;20035;-71
2022/11/15 02:10:58;;;;;;;115.72;60.13;;;6.80;99.90;;;;;;2039763;29;20106;-71
2022/11/15 02:12:20;;;;;;;113.47;59.55;;;6.80;99.90;;;;;;2041356;29;20035;-71
2022/11/15 02:13:40;;;;;;;109.45;57.15;;;6.80;99.90;;;;;;2039434;29;20382;-71
2022/11/15 02:15:01;;;;;;;107.05;58.40;;;6.80;99.90;;;;;;2037728;29;20024;-71
2022/11/15 02:16:32;;;;;;;;;;;6.80;99.90;;;;;;2039923;29;20115;-71
2022/11/15 02:17:58;;;;;;;123.03;61.60;;;6.80;99.90;;;;;;2039356;29;19993;-71
2022/11/15 02:19:26;;;;;;;116.03;60.28;;;6.80;99.90;;;;;;2039694;29;20032;-72
2022/11/15 02:21:13;;;;;;;120.65;62.38;;;6.80;99.90;;;;;;2041414;29;20044;-72
2022/11/15 02:22:54;;;;;;;118.07;60.92;;;6.80;99.90;;;;;;2037727;29;20047;-71
2022/11/15 02:24:41;;;;;;;121.13;61.67;;;6.90;99.90;;;;;;2040464;29;20610;-71
2022/11/15 02:26:19;;;;;;;114.30;58.95;;;6.80;99.90;;;;;;2036372;29;20039;-70
2022/11/15 02:28:01;;;;;;;110.50;57.08;;;6.90;99.90;;;;;;2038394;29;20530;-70
2022/11/15 02:29:35;;;;;;;109.15;56.10;;;6.80;99.90;;;;;;2040128;29;20060;-72
2022/11/15 02:31:09;;;;;;;117.60;60.42;;;6.80;99.90;;;;;;2043887;29;20071;-70
2022/11/15 02:32:48;;;;;;;116.78;59.08;;;6.80;99.90;;;;;;2039507;29;20039;-70
2022/11/15 02:34:27;;;;;;;117.13;60.35;;;6.80;99.90;;;;;;2039527;29;20028;-71
2022/11/15 02:36:08;;;;;;;115.97;59.92;;;6.80;99.90;;;;;;2038631;29;20490;-72
2022/11/15 02:37:42;;;;;;;110.65;58.08;;;6.80;99.90;;;;;;2039400;29;20036;-72
2022/11/15 02:39:34;;;;;;;116.85;60.15;;;6.80;99.90;;;;;;2037630;29;20040;-70
2022/11/15 02:41:10;;;;;;;116.45;58.72;;;6.80;99.90;;;;;;2040005;29;20607;-70
2022/11/15 02:44:31;;;;;;;118.07;59.97;;;6.70;99.90;;;;;;2037815;29;20024;-70
2022/11/15 02:45:59;;;;;;;108.72;56.25;;;6.80;99.90;;;;;;2047460;29;20031;-70
2022/11/15 02:47:21;;;;;;;108.90;56.15;;;6.70;99.90;;;;;;2037653;29;20040;-70
2022/11/15 02:48:42;;;;;;;117.32;59.35;;;6.70;99.90;;;;;;2039820;29;20027;-71
2022/11/15 02:50:07;;;;;;;109.82;56.75;;;6.80;99.90;;;;;;2038617;29;20031;-71
2022/11/15 02:51:26;;;;;;;109.85;58.80;;;6.80;99.90;;;;;;2035819;29;20043;-71
2022/11/15 02:52:46;;;;;;;110.55;57.60;;;6.80;99.90;;;;;;2036161;29;20028;-71
2022/11/15 02:54:05;;;;;;;109.57;57.65;;;6.80;99.90;;;;;;2039384;29;20513;-70
2022/11/15 02:55:26;;;;;;;112.20;57.67;;;6.80;99.90;;;;;;2038081;29;20106;-71
2022/11/15 02:56:46;;;;;;;109.47;57.35;;;6.80;99.90;;;;;;2038347;29;20044;-71
2022/11/15 02:58:17;;;;;;;104.70;55.90;;;6.80;99.90;;;;;;2038222;29;20521;-71
2022/11/15 02:59:39;;;;;;;104.07;54.67;;;6.80;99.90;;;;;;2039376;29;20039;-71
2022/11/15 03:01:27;;;;;;;105.05;56.42;;;6.80;99.90;;;;;;2037150;29;20575;-71
2022/11/15 03:03:11;;;;;;;97.38;53.50;;;6.80;99.90;;;;;;2039178;29;20035;-71
2022/11/15 03:04:43;;;;;;;102.60;52.63;;;6.80;99.90;;;;;;2039201;29;20035;-70
2022/11/15 03:06:21;;;;;;;104.38;55.60;;;6.70;99.90;;;;;;2039208;29;20048;-71
2022/11/15 03:08:13;;;;;;;105.95;56.45;;;6.70;99.90;;;;;;2037448;29;20024;-70
2022/11/15 03:10:22;;;;;;;108.28;55.55;;;6.70;99.90;;;;;;2039189;29;20035;-69
2022/11/15 03:11:50;;;;;;;114.65;57.22;;;6.70;99.90;;;;;;2038704;29;20032;-71
2022/11/15 03:13:19;;;;;;;109.13;56.28;;;6.70;99.90;;;;;;2040158;29;20028;-71
2022/11/15 03:14:55;;;;;;;109.63;55.30;;;6.70;99.90;;;;;;2038686;29;20122;-71
2022/11/15 03:16:41;;;;;;;108.90;55.80;;;6.70;99.90;;;;;;2040816;29;20395;-69
2022/11/15 03:18:06;;;;;;;101.13;53.33;;;6.70;99.90;;;;;;2038828;29;20036;-71
2022/11/15 03:19:34;;;;;;;113.50;57.80;;;6.70;99.90;;;;;;2040180;29;20028;-70
2022/11/15 03:20:54;;;;;;;116.35;58.05;;;6.70;99.90;;;;;;2040209;29;20043;-71
2022/11/15 03:22:20;;;;;;;114.15;57.22;;;6.70;99.90;;;;;;2040760;29;20039;-71
2022/11/15 03:23:41;;;;;;;109.65;56.88;;;6.70;99.90;;;;;;2047893;29;20513;-71
2022/11/15 03:25:05;;;;;;;110.32;57.33;;;6.70;99.90;;;;;;2041399;29;20035;-71
2022/11/15 03:26:25;;;;;;;104.35;54.78;;;6.70;99.90;;;;;;2040844;29;20483;-71
2022/11/15 03:27:50;;;;;;;102.40;54.70;;;6.70;99.90;;;;;;2039404;29;20494;-71
2022/11/15 03:29:16;;;;;;;105.80;55.58;;;6.70;99.90;;;;;;2040528;29;20036;-70
2022/11/15 03:30:37;;;;;;;105.28;55.60;;;6.70;99.90;;;;;;2038226;29;20028;-71
2022/11/15 03:32:05;;;;;;;107.22;54.22;;;6.70;99.90;;;;;;2040752;29;20501;-71
2022/11/15 03:33:25;;;;;;;99.00;52.65;;;6.70;99.90;;;;;;2040826;29;20031;-71
2022/11/15 03:35:08;;;;;;;101.35;53.72;;;6.70;99.90;;;;;;2040622;29;20063;-71
2022/11/15 03:36:31;;;;;;;102.38;53.72;;;6.70;99.90;;;;;;2039582;29;20027;-71
2022/11/15 03:37:59;;;;;;;106.32;54.72;;;6.60;99.90;;;;;;2039693;29;20043;-71
2022/11/15 03:39:20;;;;;;;108.57;56.33;;;6.60;99.90;;;;;;2044850;29;20031;-71
2022/11/15 03:40:49;;;;;;;105.88;55.70;;;6.60;99.90;;;;;;2039047;29;20047;-71
2022/11/15 03:42:23;;;;;;;106.75;55.55;;;6.70;99.90;;;;;;2039720;29;20055;-71
2022/11/15 03:44:11;;;;;;;105.60;54.33;;;6.70;99.90;;;;;;2040664;29;20118;-71
2022/11/15 03:45:47;;;;;;;112.63;57.63;;;6.60;99.90;;;;;;2038076;29;20028;-70
2022/11/15 03:47:17;;;;;;;104.40;54.53;;;6.70;99.90;;;;;;2041632;29;20051;-70
2022/11/15 03:49:08;;;;;;;103.18;54.55;;;6.60;99.90;;;;;;2039976;29;20052;-71
2022/11/15 03:50:28;;;;;;;107.25;55.90;;;6.60;99.90;;;;;;2033701;29;20103;-71
2022/11/15 03:51:47;;;;;;;102.25;54.38;;;6.60;99.90;;;;;;2039568;29;20040;-71
2022/11/15 03:53:07;;;;;;;104.35;54.15;;;6.60;99.90;;;;;;2040527;29;20031;-71
2022/11/15 03:54:26;;;;;;;102.10;54.05;;;6.60;99.90;;;;;;2039050;29;20549;-71
2022/11/15 03:55:45;;;;;;;100.15;53.70;;;6.60;99.90;;;;;;2040359;29;20024;-71
2022/11/15 03:57:05;;;;;;;104.03;54.47;;;6.60;99.90;;;;;;2046162;29;20043;-71
2022/11/15 03:58:24;;;;;;;105.72;54.60;;;6.60;99.90;;;;;;2051779;28;20117;-71
2022/11/15 03:59:43;;;;;;;109.72;56.70;;;6.60;99.90;;;;;;2042966;28;20058;-73
2022/11/15 04:01:03;;;;;;;101.55;54.35;;;6.60;99.90;;;;;;2038201;29;20142;-71
2022/11/15 04:02:22;;;;;;;96.55;52.42;;;6.60;99.90;;;;;;2038139;29;20748;-71
2022/11/15 04:03:41;;;;;;;96.28;52.45;;;6.50;99.90;;;;;;2038008;29;20043;-71
2022/11/15 04:05:00;;;;;;;102.45;54.17;;;6.50;99.90;;;;;;2040153;29;20032;-71
2022/11/15 04:06:20;;;;;;;107.90;57.20;;;6.60;99.90;;;;;;2037848;29;20051;-71
2022/11/15 04:07:39;;;;;;;106.30;54.85;;;6.60;99.90;;;;;;2037860;29;20442;-71
2022/11/15 04:08:58;;;;;;;107.40;55.80;;;6.50;99.90;;;;;;2037751;29;20040;-71
2022/11/15 04:10:17;;;;;;;103.05;53.08;;;6.60;99.90;;;;;;2040396;29;20023;-72
2022/11/15 04:11:36;;;;;;;102.55;53.17;;;6.60;99.90;;;;;;2040198;29;20414;-72
2022/11/15 04:12:55;;;;;;;108.57;55.60;;;6.50;99.90;;;;;;2040127;29;20751;-73
2022/11/15 04:14:14;;;;;;;101.03;52.88;;;6.60;99.90;;;;;;2040013;29;20035;-71
2022/11/15 04:15:33;;;;;;;98.88;52.10;;;6.50;99.90;;;;;;2040249;29;20168;-71
2022/11/15 04:16:53;;;;;;;100.57;52.08;;;6.60;99.90;;;;;;2040314;29;20040;-72
2022/11/15 04:18:12;;;;;;;95.45;50.60;;;6.50;99.90;;;;;;2039453;29;20028;-72
2022/11/15 04:24:25;;;;;;;105.60;53.95;;;6.50;99.90;;;;;;2038474;29;20104;-72
2022/11/15 04:25:45;;;;;;;102.93;53.65;;;6.50;99.90;;;;;;2038381;29;20039;-72
2022/11/15 04:27:05;;;;;;;95.72;50.55;;;6.40;99.90;;;;;;2038567;29;20474;-72
2022/11/15 04:28:24;;;;;;;95.93;50.33;;;6.40;99.90;;;;;;2039884;29;20043;-72
2022/11/15 04:29:43;;;;;;;102.57;52.30;;;6.40;99.90;;;;;;2040045;29;20020;-71
2022/11/15 04:31:02;;;;;;;110.15;56.75;;;6.40;99.90;;;;;;2037951;29;20040;-70
2022/11/15 04:32:21;;;;;;;102.45;53.80;;;6.40;99.90;;;;;;2040087;29;20027;-70
2022/11/15 04:33:40;;;;;;;97.30;51.35;;;6.50;99.90;;;;;;2038106;29;20032;-72
2022/11/15 04:34:59;;;;;;;97.20;51.67;;;6.50;99.90;;;;;;2044030;29;20762;-71
2022/11/15 04:37:58;;;;;;;98.65;51.75;;;6.40;99.90;;;;;;2034686;29;20047;-71
2022/11/15 04:39:17;;;;;;;101.18;52.35;;;6.40;99.90;;;;;;2037255;29;20044;-71
2022/11/15 04:40:37;;;;;;;93.25;50.42;;;6.40;99.90;;;;;;2039695;29;20028;-71
2022/11/15 04:41:56;;;;;;;90.10;49.50;;;6.40;99.90;;;;;;2039331;29;20044;-71
2022/11/15 04:43:16;;;;;;;96.25;51.47;;;6.40;99.90;;;;;;2039466;29;20035;-71
2022/11/15 04:44:35;;;;;;;97.47;51.05;;;6.40;99.90;;;;;;2039206;29;20047;-72
2022/11/15 04:45:54;;;;;;;100.97;53.05;;;6.30;99.90;;;;;;2039781;29;20760;-70
2022/11/15 04:47:14;;;;;;;97.93;52.17;;;6.40;99.90;;;;;;2039935;29;20031;-72
2022/11/15 04:48:33;;;;;;;102.45;53.85;;;6.30;99.90;;;;;;2039061;29;20032;-71
2022/11/15 04:49:52;;;;;;;93.20;50.03;;;6.30;99.90;;;;;;2046390;29;20453;-71
2022/11/15 04:51:11;;;;;;;91.70;48.42;;;6.30;99.90;;;;;;2041492;29;20031;-71
2022/11/15 04:52:30;;;;;;;101.15;52.22;;;6.30;99.90;;;;;;2039003;29;20533;-70
2022/11/15 04:53:49;;;;;;;98.93;53.35;;;6.40;99.90;;;;;;2038629;29;20036;-71
2022/11/15 04:55:10;;;;;;;100.60;52.83;;;6.40;99.90;;;;;;2040048;29;20200;-71
2022/11/15 04:56:29;;;;;;;99.13;51.58;;;6.40;99.90;;;;;;2039759;29;20040;-71
2022/11/15 04:57:58;;;;;;;95.13;49.67;;;6.30;99.90;;;;;;2040009;29;20036;-72
2022/11/15 04:59:17;;;;;;;94.10;49.97;;;6.30;99.90;;;;;;2040172;29;20043;-70
2022/11/15 05:00:37;;;;;;;100.28;52.40;;;6.30;99.90;;;;;;2039982;29;20024;-71
2022/11/15 05:01:56;;;;;;;109.88;56.10;;;6.30;99.90;;;;;;2040221;29;20115;-70
2022/11/15 05:04:53;;;;;;;106.80;54.67;;;6.30;99.90;;;;;;2039950;29;20039;-74
2022/11/15 05:06:12;;;;;;;107.95;54.67;;;6.30;99.90;;;;;;2040043;29;20088;-75
2022/11/15 05:07:31;;;;;;;98.00;51.05;;;6.40;99.90;;;;;;2039879;29;20071;-74
2022/11/15 05:08:50;;;;;;;100.45;52.13;;;6.40;99.90;;;;;;2038249;29;20035;-74
2022/11/15 05:10:09;;;;;;;97.35;51.88;;;6.40;99.90;;;;;;2032236;29;20067;-74
2022/11/15 05:11:29;;;;;;;98.80;51.30;;;6.40;99.90;;;;;;2031918;29;20036;-74
2022/11/15 05:12:48;;;;;;;91.03;49.55;;;6.50;99.90;;;;;;2032467;29;20051;-75
2022/11/15 05:14:07;;;;;;;108.47;57.50;;;6.40;99.90;;;;;;2032430;29;20091;-76
2022/11/15 05:15:27;;;;;;;104.82;58.20;;;6.40;99.90;;;;;;2032393;29;20040;-76
2022/11/15 05:16:46;;;;;;;115.63;62.10;;;6.40;99.90;;;;;;2032457;29;20052;-76
2022/11/15 05:18:05;;;;;;;104.38;55.70;;;6.40;99.90;;;;;;2032595;29;20499;-76
2022/11/15 05:19:24;;;;;;;104.80;54.65;;;6.40;99.90;;;;;;2039971;29;20043;-75
2022/11/15 05:20:43;;;;;;;105.13;55.15;;;6.40;99.90;;;;;;2039832;29;20064;-76
2022/11/15 05:22:02;;;;;;;110.97;57.88;;;6.40;99.90;;;;;;2040571;29;20043;-77
2022/11/15 05:23:24;;;;;;;108.25;57.05;;;6.40;99.90;;;;;;2039644;29;20518;-73
2022/11/15 05:24:43;;;;;;;106.65;56.30;;;6.40;99.90;;;;;;2039457;29;20040;-74
2022/11/15 05:26:04;;;;;;;104.45;53.90;;;6.40;99.90;;;;;;2039897;29;20564;-72
2022/11/15 05:27:23;;;;;;;98.22;52.97;;;6.50;99.90;;;;;;2039992;29;20040;-72
2022/11/15 05:28:42;;;;;;;112.75;58.60;;;6.50;99.90;;;;;;2039821;29;20039;-72
2022/11/15 05:30:02;;;;;;;119.38;63.13;;;6.50;99.90;;;;;;2040098;29;20040;-72
2022/11/15 05:31:22;;;;;;;116.75;62.17;;;6.40;99.90;;;;;;2039803;29;20099;-72
2022/11/15 05:32:41;;;;;;;108.25;58.13;;;6.50;99.90;;;;;;2040212;29;20040;-72
2022/11/15 05:34:05;;;;;;;111.15;58.88;;;6.50;99.90;;;;;;2039666;29;20466;-72
2022/11/15 05:35:31;;;;;;;118.18;63.45;;;6.50;99.90;;;;;;2040506;29;20031;-72
2022/11/15 05:36:51;;;;;;;114.78;61.65;;;6.50;99.90;;;;;;2040549;29;20028;-73
2022/11/15 05:38:10;;;;;;;112.00;59.83;;;6.50;99.90;;;;;;2040232;29;20043;-70
2022/11/15 05:39:29;;;;;;;111.25;60.17;;;6.40;99.90;;;;;;2040673;29;20039;-70
2022/11/15 05:40:49;;;;;;;105.90;56.92;;;6.50;99.90;;;;;;2040534;29;20124;-72
2022/11/15 05:42:09;;;;;;;109.18;58.08;;;6.40;99.90;;;;;;2040290;29;20610;-71
2022/11/15 05:43:30;;;;;;;101.80;54.13;;;6.50;99.90;;;;;;2040092;29;20056;-71
2022/11/15 05:44:50;;;;;;;97.10;51.60;;;6.40;99.90;;;;;;2039925;29;20147;-71
2022/11/15 05:46:10;;;;;;;97.70;50.85;;;6.40;99.90;;;;;;2039579;29;20036;-71
2022/11/15 05:47:30;;;;;;;95.32;51.55;;;6.40;99.90;;;;;;2039932;29;20039;-72
2022/11/15 05:48:52;;;;;;;98.47;53.33;;;6.40;99.90;;;;;;2039557;29;20028;-72
2022/11/15 05:50:14;;;;;;;100.50;53.65;;;6.40;99.90;;;;;;2039652;29;20032;-72
2022/11/15 05:51:33;;;;;;;102.63;53.88;;;6.30;99.90;;;;;;2039670;29;20040;-72
2022/11/15 05:52:54;;;;;;;103.53;52.78;;;6.40;99.90;;;;;;2039545;29;20044;-72
2022/11/15 05:54:15;;;;;;;105.88;54.95;;;6.40;99.90;;;;;;2039650;29;20486;-71
2022/11/15 05:55:34;;;;;;;99.78;53.05;;;6.40;99.90;;;;;;2039811;29;20040;-73
2022/11/15 05:56:54;;;;;;;102.50;55.05;;;6.40;99.90;;;;;;2039365;29;20044;-72
2022/11/15 05:58:20;;;;;;;102.90;53.22;;;6.40;99.90;;;;;;2039609;29;20047;-72
2022/11/15 05:59:40;;;;;;;100.80;53.53;;;6.30;99.90;;;;;;2039810;29;20103;-72
2022/11/15 06:01:00;;;;;;;;;;;6.40;99.90;;;;;;2039773;29;20134;-71
2022/11/15 06:02:19;;;;;;;106.22;53.90;;;6.30;99.90;;;;;;2039760;29;19906;-72
2022/11/15 06:03:38;;;;;;;104.10;52.50;;;6.30;99.90;;;;;;2040176;29;20047;-71
2022/11/15 06:04:57;;;;;;;105.35;53.60;;;6.30;99.90;;;;;;2039783;29;20043;-71
2022/11/15 06:06:17;;;;;;;102.68;52.53;;;6.30;99.90;;;;;;2039789;29;20696;-70
2022/11/15 06:07:35;;;;;;;105.13;55.53;;;6.30;99.90;;;;;;2039608;29;20031;-72
2022/11/15 06:08:55;;;;;;;94.78;51.63;;;6.40;99.90;;;;;;2039660;29;20075;-72
2022/11/15 06:10:14;;;;;;;101.90;52.72;;;6.40;99.90;;;;;;2039124;29;20028;-72
2022/11/15 06:11:33;;;;;;;105.80;55.22;;;6.40;99.90;;;;;;2039335;29;20393;-72
2022/11/15 06:12:59;;;;;;;100.22;53.50;;;6.40;99.90;;;;;;2039470;29;20032;-72
2022/11/15 06:14:18;;;;;;;100.93;52.88;;;6.40;99.90;;;;;;2038854;29;20051;-72
2022/11/15 06:15:38;;;;;;;99.43;53.00;;;6.40;99.90;;;;;;2039472;29;20035;-72
2022/11/15 06:16:57;;;;;;;95.32;52.17;;;6.40;99.90;;;;;;2039014;29;20058;-70
2022/11/15 06:18:16;;;;;;;100.28;52.40;;;6.50;99.90;;;;;;2039793;29;20035;-70
2022/11/15 06:19:35;;;;;;;92.75;50.05;;;6.50;99.90;;;;;;2039584;29;20521;-71
2022/11/15 06:20:58;;;;;;;97.53;51.05;;;6.50;99.90;;;;;;2039146;29;20044;-72
2022/11/15 06:22:17;;;;;;;90.82;49.08;;;6.40;99.90;;;;;;2039244;29;20601;-72
2022/11/15 06:23:37;;;;;;;92.55;49.22;;;6.50;99.90;;;;;;2039509;29;20777;-72
2022/11/15 06:24:56;;;;;;;87.70;47.40;;;6.50;99.90;;;;;;2039483;29;20059;-72
2022/11/15 06:26:15;;;;;;;89.88;48.10;;;6.40;99.90;;;;;;2038913;29;20075;-72
2022/11/15 06:27:34;;;;;;;85.38;46.45;;;6.40;99.90;;;;;;2039433;29;20039;-72
2022/11/15 06:28:53;;;;;;;99.47;52.10;;;6.40;99.90;;;;;;2039494;29;20039;-72
2022/11/15 06:30:13;;;;;;;99.55;51.03;;;6.40;99.90;;;;;;2039062;29;20059;-72
2022/11/15 06:31:34;;;;;;;96.38;51.33;;;6.50;99.90;;;;;;2039540;29;20043;-72
2022/11/15 06:33:04;;;;;;;94.80;50.28;;;6.50;99.90;;;;;;2039640;29;20055;-72
2022/11/15 06:34:24;;;;;;;98.88;51.90;;;6.50;99.90;;;;;;2039469;29;20036;-72
2022/11/15 06:35:43;;;;;;;90.82;48.35;;;6.50;99.90;;;;;;2039833;29;20052;-72
2022/11/15 06:37:03;;;;;;;93.07;49.42;;;6.50;99.90;;;;;;2039667;29;20035;-71
2022/11/15 06:38:22;;;;;;;94.68;49.70;;;6.50;99.90;;;;;;2039699;29;20035;-70
2022/11/15 06:39:41;;;;;;;91.93;49.47;;;6.50;99.90;;;;;;2039787;29;20044;-71
2022/11/15 06:41:05;;;;;;;89.53;48.05;;;6.60;99.90;;;;;;2039373;29;20114;-70
2022/11/15 06:42:24;;;;;;;88.13;46.75;;;6.60;99.90;;;;;;2039689;29;20047;-70
2022/11/15 06:43:43;;;;;;;86.80;46.45;;;6.60;99.90;;;;;;2039769;29;20060;-71
2022/11/15 06:45:03;;;;;;;90.80;49.80;;;6.50;99.90;;;;;;2040036;29;20035;-70
2022/11/15 06:46:22;;;;;;;90.60;48.95;;;6.50;99.90;;;;;;2040518;29;20039;-70
2022/11/15 06:47:46;;;;;;;93.40;49.25;;;6.60;99.90;;;;;;2041134;29;20760;-71
2022/11/15 06:49:05;;;;;;;90.97;48.22;;;6.60;99.90;;;;;;2041568;29;20019;-71
2022/11/15 06:50:25;;;;;;;94.22;49.65;;;6.60;99.90;;;;;;2041117;29;20067;-71
2022/11/15 06:51:44;;;;;;;86.28;47.40;;;6.60;99.90;;;;;;2041203;29;20031;-71
2022/11/15 06:53:04;;;;;;;89.55;48.17;;;6.60;99.90;;;;;;2041157;29;20040;-71
2022/11/15 06:54:23;;;;;;;85.75;46.83;;;6.70;99.90;;;;;;2041305;29;20107;-71
2022/11/15 06:55:42;;;;;;;80.57;45.55;;;6.70;99.90;;;;;;2041841;29;20043;-71
2022/11/15 06:57:01;;;;;;;79.22;45.33;;;6.70;99.90;;;;;;2041598;29;20126;-71
2022/11/15 06:58:21;;;;;;;83.03;45.25;;;6.70;99.90;;;;;;2042017;29;20031;-71
2022/11/15 06:59:40;;;;;;;84.38;45.95;;;6.70;99.90;;;;;;2041888;29;20083;-71
2022/11/15 07:01:09;;;;;;;84.45;45.95;;;6.70;99.90;;;;;;2041790;29;20074;-73
2022/11/15 07:02:28;;;;;;;86.82;46.67;;;6.70;99.90;;;;;;2041522;29;20044;-72
2022/11/15 07:03:47;;;;;;;82.80;45.05;;;6.70;99.90;;;;;;2048725;29;20817;-72
2022/11/15 07:05:07;;;;;;;86.47;45.67;;;6.70;99.90;;;;;;2044138;29;20039;-72
2022/11/15 07:06:26;;;;;;;85.22;45.45;;;6.70;99.90;;;;;;2041301;29;20494;-72
2022/11/15 07:07:51;;;;;;;88.22;47.50;;;6.80;99.90;;;;;;2041190;29;20052;-72
2022/11/15 07:09:10;;;;;;;85.18;46.38;;;6.80;99.90;;;;;;2041131;29;20393;-71
2022/11/15 07:10:30;;;;;;;84.28;46.17;;;6.80;99.90;;;;;;2039708;29;20119;-70